createdAt,value
2022-12-06T00:00:07.000Z,7.7
2022-12-06T00:03:40.000Z,7.1
2022-12-06T00:06:31.000Z,7.4
2022-12-06T00:10:04.000Z,7.8
2022-12-06T00:13:37.000Z,7.6
2022-12-06T00:17:09.000Z,8.9
2022-12-06T00:20:42.000Z,8.9
2022-12-06T00:24:14.000Z,9.9
2022-12-06T00:27:47.000Z,10.4
2022-12-06T00:31:20.000Z,9.2
2022-12-06T00:34:52.000Z,9.9
2022-12-06T00:38:25.000Z,10.5
2022-12-06T00:41:58.000Z,9.7
2022-12-06T00:44:49.000Z,10.6
2022-12-06T00:48:22.000Z,10.5
2022-12-06T00:52:59.000Z,10.2
2022-12-06T00:56:32.000Z,9.7
2022-12-06T01:00:04.000Z,9.8
2022-12-06T01:03:37.000Z,9.1
2022-12-06T01:07:10.000Z,9.5
2022-12-06T01:10:43.000Z,8.7
2022-12-06T01:14:15.000Z,8.4
2022-12-06T01:17:48.000Z,7.6
2022-12-06T01:21:21.000Z,7
2022-12-06T01:24:12.000Z,7.6
2022-12-06T01:27:45.000Z,7
2022-12-06T01:31:17.000Z,7.8
2022-12-06T01:34:50.000Z,7.4
2022-12-06T01:38:23.000Z,7.1
2022-12-06T01:41:56.000Z,6.7
2022-12-06T01:45:28.000Z,6.6
2022-12-06T01:49:01.000Z,5.9
2022-12-06T01:52:34.000Z,5.8
2022-12-06T01:56:06.000Z,5.8
2022-12-06T01:59:39.000Z,5.5
2022-12-06T02:02:30.000Z,5.8
2022-12-06T02:06:05.000Z,6.1
2022-12-06T02:09:38.000Z,5.9
2022-12-06T02:13:10.000Z,6
2022-12-06T02:16:43.000Z,6.4
2022-12-06T02:20:16.000Z,6.2
2022-12-06T02:23:48.000Z,6.4
2022-12-06T02:27:21.000Z,6.7
2022-12-06T02:30:54.000Z,5.7
2022-12-06T02:34:26.000Z,6.1
2022-12-06T02:37:59.000Z,8.9
2022-12-06T02:40:56.000Z,8.3
2022-12-06T02:44:29.000Z,7.5
2022-12-06T02:48:01.000Z,7.8
2022-12-06T02:51:34.000Z,7.8
2022-12-06T02:55:07.000Z,8.1
2022-12-06T02:58:40.000Z,8.8
2022-12-06T03:02:12.000Z,8
2022-12-06T03:05:45.000Z,8.7
2022-12-06T03:09:17.000Z,8.6
2022-12-06T03:12:50.000Z,7.9
2022-12-06T03:16:23.000Z,8.4
2022-12-06T03:19:14.000Z,8.8
2022-12-06T03:22:46.000Z,9
2022-12-06T03:26:19.000Z,9.7
2022-12-06T03:29:51.000Z,9.5
2022-12-06T03:33:25.000Z,9.3
2022-12-06T03:36:57.000Z,9.8
2022-12-06T03:40:30.000Z,9.6
2022-12-06T03:44:03.000Z,9.3
2022-12-06T03:47:36.000Z,9.6
2022-12-06T03:51:08.000Z,9.8
2022-12-06T03:54:41.000Z,10.1
2022-12-06T03:57:32.000Z,10.2
2022-12-06T04:01:05.000Z,9.6
2022-12-06T04:04:37.000Z,9.3
2022-12-06T04:08:10.000Z,10.3
2022-12-06T04:11:43.000Z,10.6
2022-12-06T04:15:18.000Z,9.9
2022-12-06T04:18:51.000Z,9.9
2022-12-06T04:22:24.000Z,9.9
2022-12-06T04:25:56.000Z,10.1
2022-12-06T04:29:29.000Z,10.1
2022-12-06T04:33:02.000Z,10.8
2022-12-06T04:35:53.000Z,9.7
2022-12-06T04:39:25.000Z,8.8
2022-12-06T04:42:58.000Z,9.6
2022-12-06T04:46:30.000Z,10.4
2022-12-06T04:50:03.000Z,9.2
2022-12-06T04:53:36.000Z,8.9
2022-12-06T04:57:09.000Z,9.4
2022-12-06T05:00:41.000Z,9
2022-12-06T05:04:14.000Z,9.4
2022-12-06T05:07:47.000Z,9.1
2022-12-06T05:11:19.000Z,8.9
2022-12-06T05:14:11.000Z,9
2022-12-06T05:17:43.000Z,9.2
2022-12-06T05:21:16.000Z,9.2
2022-12-06T05:24:48.000Z,8.5
2022-12-06T05:28:21.000Z,9.3
2022-12-06T05:31:54.000Z,9.1
2022-12-06T05:35:27.000Z,9
2022-12-06T05:38:59.000Z,9.7
2022-12-06T05:42:32.000Z,8.7
2022-12-06T05:46:04.000Z,9
2022-12-06T05:49:37.000Z,8.5
2022-12-06T05:52:28.000Z,8.7
2022-12-06T05:56:01.000Z,9.3
2022-12-06T05:59:34.000Z,8.8
2022-12-06T06:03:06.000Z,11.7
2022-12-06T06:06:39.000Z,10.4
2022-12-06T06:10:12.000Z,10.3
2022-12-06T06:13:45.000Z,8.8
2022-12-06T06:17:17.000Z,9.3
2022-12-06T06:20:50.000Z,9.3
2022-12-06T06:24:22.000Z,9
2022-12-06T06:27:55.000Z,11.6
2022-12-06T06:30:46.000Z,10.2
2022-12-06T06:34:19.000Z,9.9
2022-12-06T06:37:52.000Z,10.3
2022-12-06T06:41:24.000Z,10.1
2022-12-06T06:44:57.000Z,9.8
2022-12-06T06:48:30.000Z,10.2
2022-12-06T06:52:03.000Z,10.9
2022-12-06T06:55:35.000Z,9.7
2022-12-06T06:59:15.000Z,9.4
2022-12-06T07:02:48.000Z,9.8
2022-12-06T07:06:21.000Z,9.3
2022-12-06T07:09:12.000Z,8.9
2022-12-06T07:12:45.000Z,8.8
2022-12-06T07:16:17.000Z,8.8
2022-12-06T07:19:50.000Z,9
2022-12-06T07:23:23.000Z,8.7
2022-12-06T07:26:56.000Z,9.1
2022-12-06T07:30:28.000Z,9.1
2022-12-06T07:34:01.000Z,8.6
2022-12-06T07:38:10.000Z,8.4
2022-12-06T07:41:42.000Z,9
2022-12-06T07:45:15.000Z,9.1
2022-12-06T07:48:06.000Z,8.5
2022-12-06T07:51:39.000Z,8.6
2022-12-06T07:55:11.000Z,8.5
2022-12-06T07:58:44.000Z,8.9
2022-12-06T08:02:17.000Z,10.1
2022-12-06T08:05:49.000Z,13.1
2022-12-06T08:09:22.000Z,10.9
2022-12-06T08:12:55.000Z,9.4
2022-12-06T08:16:27.000Z,11.6
2022-12-06T08:20:00.000Z,12.2
2022-12-06T08:23:33.000Z,9.8
2022-12-06T08:26:24.000Z,8.9
2022-12-06T08:29:56.000Z,8.6
2022-12-06T08:33:29.000Z,9.2
2022-12-06T08:37:02.000Z,8.9
2022-12-06T08:40:35.000Z,10.9
2022-12-06T08:44:07.000Z,9.3
2022-12-06T08:47:40.000Z,9
2022-12-06T08:51:12.000Z,8.6
2022-12-06T08:54:45.000Z,8.2
2022-12-06T08:58:18.000Z,8.2
2022-12-06T09:01:50.000Z,8.7
2022-12-06T09:04:42.000Z,11.3
2022-12-06T09:08:14.000Z,11.3
2022-12-06T09:11:47.000Z,10.5
2022-12-06T09:15:20.000Z,8.9
2022-12-06T09:18:53.000Z,9
2022-12-06T09:22:25.000Z,8.8
2022-12-06T09:25:58.000Z,7.8
2022-12-06T09:29:30.000Z,8.3
2022-12-06T09:33:06.000Z,7.8
2022-12-06T09:36:39.000Z,7.6
2022-12-06T09:40:11.000Z,7.5
2022-12-06T09:43:03.000Z,7.6
2022-12-06T09:46:35.000Z,7.7
2022-12-06T09:50:08.000Z,7.7
2022-12-06T09:53:40.000Z,8.1
2022-12-06T09:57:13.000Z,7.5
2022-12-06T10:00:46.000Z,7.3
2022-12-06T10:04:19.000Z,8
2022-12-06T10:07:51.000Z,7
2022-12-06T10:11:24.000Z,7.6
2022-12-06T10:14:56.000Z,7.8
2022-12-06T10:18:29.000Z,7.4
2022-12-06T10:21:21.000Z,7.8
2022-12-06T10:24:53.000Z,7.8
2022-12-06T10:28:26.000Z,7.3
2022-12-06T10:31:59.000Z,7.4
2022-12-06T10:35:32.000Z,7
2022-12-06T10:39:05.000Z,7.6
2022-12-06T10:42:37.000Z,7.4
2022-12-06T10:46:10.000Z,7.2
2022-12-06T10:49:43.000Z,7.5
2022-12-06T10:53:15.000Z,8
2022-12-06T10:56:48.000Z,7.2
2022-12-06T10:59:39.000Z,7.7
2022-12-06T11:03:12.000Z,7.9
2022-12-06T11:06:44.000Z,7.6
2022-12-06T11:10:20.000Z,7.4
2022-12-06T11:13:53.000Z,7.2
2022-12-06T11:17:25.000Z,7.3
2022-12-06T11:20:58.000Z,7.6
2022-12-06T11:24:31.000Z,6.8
2022-12-06T11:28:11.000Z,7.3
2022-12-06T11:31:43.000Z,7.3
2022-12-06T11:35:16.000Z,7.1
2022-12-06T11:38:07.000Z,7.3
2022-12-06T11:41:40.000Z,6.6
2022-12-06T11:45:12.000Z,6.7
2022-12-06T11:48:45.000Z,6.6
2022-12-06T11:52:18.000Z,6.7
2022-12-06T11:55:50.000Z,6.6
2022-12-06T11:59:23.000Z,7.3
2022-12-06T12:02:56.000Z,6.9
2022-12-06T12:06:28.000Z,6.8
2022-12-06T12:10:01.000Z,6.4
2022-12-06T12:13:34.000Z,7.3
2022-12-06T12:16:25.000Z,6.3
2022-12-06T12:19:58.000Z,6.4
2022-12-06T12:23:30.000Z,7.2
2022-12-06T12:27:18.000Z,7.7
2022-12-06T12:30:54.000Z,6.7
2022-12-06T12:34:26.000Z,6.3
2022-12-06T12:38:05.000Z,6.4
2022-12-06T12:41:37.000Z,6.8
2022-12-06T12:45:10.000Z,6.4
2022-12-06T12:48:43.000Z,6.3
2022-12-06T12:52:16.000Z,5.9
2022-12-06T12:55:07.000Z,6.2
2022-12-06T12:58:39.000Z,6.3
2022-12-06T13:02:12.000Z,6.2
2022-12-06T13:05:50.000Z,6.1
2022-12-06T13:09:22.000Z,6.2
2022-12-06T13:12:58.000Z,6
2022-12-06T13:16:30.000Z,6.3
2022-12-06T13:20:03.000Z,6.5
2022-12-06T13:23:36.000Z,5.7
2022-12-06T13:27:08.000Z,6
2022-12-06T13:30:41.000Z,6.2
2022-12-06T13:33:32.000Z,6.1
2022-12-06T13:37:05.000Z,6.4
2022-12-06T13:40:37.000Z,5.9
2022-12-06T13:44:10.000Z,5.7
2022-12-06T13:47:43.000Z,5.5
2022-12-06T13:51:15.000Z,6.5
2022-12-06T13:54:48.000Z,5.3
2022-12-06T13:58:21.000Z,5.3
2022-12-06T14:01:53.000Z,6.8
2022-12-06T14:05:26.000Z,5.3
2022-12-06T14:08:59.000Z,6.5
2022-12-06T14:11:50.000Z,5.5
2022-12-06T14:15:22.000Z,5.2
2022-12-06T14:18:55.000Z,7.1
2022-12-06T14:22:28.000Z,10.1
2022-12-06T14:26:00.000Z,8.2
2022-12-06T14:29:33.000Z,6.6
2022-12-06T14:33:06.000Z,6.1
2022-12-06T14:36:38.000Z,5.5
2022-12-06T14:40:11.000Z,5.8
2022-12-06T14:44:10.000Z,5.3
2022-12-06T14:47:42.000Z,6.1
2022-12-06T14:50:33.000Z,5.6
2022-12-06T14:54:06.000Z,6.1
2022-12-06T14:57:38.000Z,6.2
2022-12-06T15:01:11.000Z,5.5
2022-12-06T15:04:44.000Z,6.6
2022-12-06T15:08:16.000Z,9.7
2022-12-06T15:11:49.000Z,8.2
2022-12-06T15:15:22.000Z,5.3
2022-12-06T15:18:54.000Z,5.7
2022-12-06T15:22:27.000Z,5.8
2022-12-06T15:26:00.000Z,5.8
2022-12-06T15:28:50.000Z,5.5
2022-12-06T15:32:23.000Z,4.4
2022-12-06T15:35:56.000Z,4.7
2022-12-06T15:39:38.000Z,4.6
2022-12-06T15:43:11.000Z,4.5
2022-12-06T15:46:48.000Z,4.4
2022-12-06T15:50:21.000Z,4.5
2022-12-06T15:53:53.000Z,4.3
2022-12-06T15:57:26.000Z,4.5
2022-12-06T16:00:59.000Z,4.5
2022-12-06T16:04:31.000Z,4.8
2022-12-06T16:07:22.000Z,4.8
2022-12-06T16:10:55.000Z,5.5
2022-12-06T16:14:37.000Z,6.2
2022-12-06T16:18:10.000Z,6.6
2022-12-06T16:21:42.000Z,6.1
2022-12-06T16:25:15.000Z,5.5
2022-12-06T16:28:47.000Z,6.8
2022-12-06T16:32:20.000Z,7
2022-12-06T16:35:53.000Z,6.8
2022-12-06T16:39:25.000Z,6.1
2022-12-06T16:43:03.000Z,7.2
2022-12-06T16:45:54.000Z,6.7
2022-12-06T16:49:27.000Z,6.7
2022-12-06T16:53:12.000Z,7
2022-12-06T16:56:45.000Z,6.7
2022-12-06T17:00:17.000Z,7.7
2022-12-06T17:03:50.000Z,8.3
2022-12-06T17:07:23.000Z,7.6
2022-12-06T17:10:55.000Z,7.9
2022-12-06T17:14:28.000Z,8.1
2022-12-06T17:18:01.000Z,8.8
2022-12-06T17:21:33.000Z,9.2
2022-12-06T17:24:25.000Z,8.5
2022-12-06T17:27:57.000Z,8.8
2022-12-06T17:31:30.000Z,8.2
2022-12-06T17:35:03.000Z,9.1
2022-12-06T17:38:35.000Z,8.9
2022-12-06T17:42:08.000Z,8.3
2022-12-06T17:45:41.000Z,9.1
2022-12-06T17:49:14.000Z,9.2
2022-12-06T17:52:46.000Z,8.8
2022-12-06T17:56:19.000Z,7.8
2022-12-06T17:59:52.000Z,8.6
2022-12-06T18:02:43.000Z,8.4
2022-12-06T18:06:16.000Z,8.3
2022-12-06T18:09:48.000Z,8.9
2022-12-06T18:13:21.000Z,8.3
2022-12-06T18:16:53.000Z,7.9
2022-12-06T18:20:26.000Z,8.2
2022-12-06T18:23:59.000Z,7.8
2022-12-06T18:27:48.000Z,8.5
2022-12-06T18:31:20.000Z,8.3
2022-12-06T18:34:53.000Z,8.9
2022-12-06T18:38:27.000Z,9.5
2022-12-06T18:41:18.000Z,9.1
2022-12-06T18:44:50.000Z,9.4
2022-12-06T18:48:24.000Z,9.1
2022-12-06T18:51:56.000Z,8.8
2022-12-06T18:55:29.000Z,10.6
2022-12-06T18:59:01.000Z,9.8
2022-12-06T19:02:34.000Z,8.5
2022-12-06T19:06:07.000Z,9.3
2022-12-06T19:09:40.000Z,9.1
2022-12-06T19:13:12.000Z,12.8
2022-12-06T19:16:45.000Z,12.5
2022-12-06T19:19:36.000Z,13.9
2022-12-06T19:23:09.000Z,13.4
2022-12-06T19:26:42.000Z,11.5
2022-12-06T19:30:14.000Z,11.3
2022-12-06T19:33:47.000Z,11
2022-12-06T19:37:20.000Z,10.1
2022-12-06T19:40:52.000Z,10.9
2022-12-06T19:44:25.000Z,11.9
2022-12-06T19:47:57.000Z,10.7
2022-12-06T19:51:30.000Z,11.4
2022-12-06T19:55:03.000Z,10.8
2022-12-06T19:57:54.000Z,10.9
2022-12-06T20:01:26.000Z,10.2
2022-12-06T20:04:59.000Z,11.5
2022-12-06T20:08:32.000Z,11.1
2022-12-06T20:12:05.000Z,10.8
2022-12-06T20:15:37.000Z,10.4
2022-12-06T20:19:10.000Z,10.9
2022-12-06T20:22:43.000Z,10.5
2022-12-06T20:26:15.000Z,10.4
2022-12-06T20:29:48.000Z,9.9
2022-12-06T20:33:21.000Z,10.1
2022-12-06T20:36:12.000Z,9.9
2022-12-06T20:39:44.000Z,10.2
2022-12-06T20:43:17.000Z,10.6
2022-12-06T20:46:50.000Z,10.4
2022-12-06T20:50:23.000Z,9.9
2022-12-06T20:53:55.000Z,10.7
2022-12-06T20:57:28.000Z,13.4
2022-12-06T21:01:00.000Z,15.4
2022-12-06T21:04:33.000Z,23.7
2022-12-06T21:08:06.000Z,14.4
2022-12-06T21:11:39.000Z,12.4
2022-12-06T21:14:30.000Z,17.4
2022-12-06T21:18:03.000Z,12
2022-12-06T21:21:39.000Z,12.3
2022-12-06T21:25:11.000Z,13.5
2022-12-06T21:28:44.000Z,11.4
2022-12-06T21:32:16.000Z,11.9
2022-12-06T21:35:49.000Z,11.2
2022-12-06T21:39:22.000Z,12.5
2022-12-06T21:43:00.000Z,13.5
2022-12-06T21:46:33.000Z,14.2
2022-12-06T21:50:05.000Z,14.6
2022-12-06T21:52:56.000Z,13.6
2022-12-06T21:56:29.000Z,11.6
2022-12-06T22:00:01.000Z,12.6
2022-12-06T22:03:34.000Z,12.6
2022-12-06T22:07:07.000Z,11.2
2022-12-06T22:10:39.000Z,12.8
2022-12-06T22:14:12.000Z,12.3
2022-12-06T22:17:45.000Z,12.6
2022-12-06T22:21:17.000Z,11.1
2022-12-06T22:24:50.000Z,10.2
2022-12-06T22:28:22.000Z,11
2022-12-06T22:31:14.000Z,11.8
2022-12-06T22:34:46.000Z,11
2022-12-06T22:38:19.000Z,10.2
2022-12-06T22:41:52.000Z,10
2022-12-06T22:45:24.000Z,11.5
2022-12-06T22:48:57.000Z,12
2022-12-06T22:52:30.000Z,12
2022-12-06T22:56:02.000Z,12.5
2022-12-06T22:59:35.000Z,14.5
2022-12-06T23:03:14.000Z,14.3
2022-12-06T23:06:47.000Z,15.2
2022-12-06T23:09:38.000Z,13.3
2022-12-06T23:13:10.000Z,14.7
2022-12-06T23:16:43.000Z,14.2
2022-12-06T23:20:16.000Z,13.3
2022-12-06T23:23:48.000Z,13.6
2022-12-06T23:27:21.000Z,14
2022-12-06T23:30:53.000Z,13.9
2022-12-06T23:34:26.000Z,14.6
2022-12-06T23:37:59.000Z,14.3
2022-12-06T23:41:31.000Z,15.4
2022-12-06T23:45:04.000Z,15.5
2022-12-06T23:47:55.000Z,14.9
2022-12-06T23:51:28.000Z,17.1
2022-12-06T23:55:00.000Z,20.4
2022-12-06T23:58:33.000Z,16.7
